Time;durP1;ratioP1;P1;durP2;ratioP2;P2;SDS_P1;SDS_P2;PMS_P1;PMS_P2;Temp;Humidity;BMP_temperature;BMP_pressure;BME280_temperature;BME280_humidity;BME280_pressure;Samples;Min_cycle;Max_cycle;Signal;HPM_P1;HPM_P2
2022/10/05 00:00:49;;;;;;;0.85;0.80;;;;;;;17.79;62.39;97183.88;10519366;28;20032;-29
2022/10/05 00:05:50;;;;;;;1.13;1.02;;;;;;;17.79;62.23;97171.22;10515172;28;20488;-28
2022/10/05 00:10:51;;;;;;;1.30;0.90;;;;;;;17.77;62.19;97172.88;10524058;28;20055;-29
2022/10/05 00:15:58;;;;;;;1.90;1.10;;;;;;;17.70;62.12;97174.50;10515121;28;20052;-28
2022/10/05 00:20:59;;;;;;;0.80;0.70;;;;;;;17.71;62.16;97173.69;10516516;28;20107;-29
2022/10/05 00:26:15;;;;;;;2.03;0.75;;;;;;;17.78;62.19;97189.78;10515869;28;20036;-29
2022/10/05 00:31:19;;;;;;;2.47;1.00;;;;;;;17.83;61.96;97186.44;10518490;28;20168;-29
2022/10/05 00:36:19;;;;;;;1.45;0.98;;;;;;;17.89;62.27;97188.19;10509305;28;20282;-29
2022/10/05 00:41:35;;;;;;;2.43;1.07;;;;;;;17.90;62.07;97184.84;10517693;28;20037;-29
2022/10/05 00:46:53;;;;;;;1.10;0.88;;;;;;;17.84;61.97;97177.19;10515969;28;20293;-30
2022/10/05 00:52:03;;;;;;;0.75;0.75;;;;;;;17.80;62.11;97167.84;10516552;28;20093;-29
2022/10/05 00:57:32;;;;;;;1.35;1.13;;;;;;;17.80;62.18;97166.16;10510947;28;20036;-29
2022/10/05 01:02:45;;;;;;;1.05;0.90;;;;;;;17.77;62.16;97163.63;10519383;28;20042;-29
2022/10/05 01:08:12;;;;;;;1.25;0.80;;;;;;;17.76;62.23;97156.81;10517918;28;20033;-28
2022/10/05 01:13:27;;;;;;;0.95;0.85;;;;;;;17.78;62.08;97159.38;10499974;28;20044;-29
2022/10/05 01:18:46;;;;;;;0.90;0.73;;;;;;;17.74;62.25;97161.03;10514187;28;20021;-29
2022/10/05 01:24:17;;;;;;;1.02;0.90;;;;;;;17.79;61.92;97166.16;10510949;28;20056;-30
2022/10/05 01:29:33;;;;;;;1.30;1.10;;;;;;;17.78;62.02;97159.38;10516312;28;20090;-28
2022/10/05 01:34:53;;;;;;;0.90;0.85;;;;;;;17.76;62.02;97150.94;10506708;28;20036;-29
2022/10/05 01:39:57;;;;;;;1.00;0.90;;;;;;;17.82;62.18;97153.53;10517606;28;20028;-29
2022/10/05 01:45:05;;;;;;;1.45;0.98;;;;;;;17.87;62.11;97154.41;10511002;28;20047;-29
2022/10/05 01:50:22;;;;;;;0.80;0.73;;;;;;;17.85;62.14;97141.75;10517179;28;20039;-29
2022/10/05 01:55:38;;;;;;;0.93;0.80;;;;;;;17.78;62.08;97136.59;10512312;28;20415;-30
2022/10/05 02:00:55;;;;;;;0.98;0.90;;;;;;;17.77;61.99;97137.44;10515245;28;20094;-29
2022/10/05 02:06:07;;;;;;;0.88;0.80;;;;;;;17.77;61.96;97127.31;10511148;28;20032;-29
2022/10/05 02:11:11;;;;;;;2.63;1.15;;;;;;;17.75;62.00;97126.44;10516757;28;20032;-29
2022/10/05 02:16:16;;;;;;;2.35;0.90;;;;;;;17.76;61.94;97133.19;10513833;28;20051;-29
2022/10/05 02:21:18;;;;;;;1.25;0.90;;;;;;;17.65;61.74;97106.94;10507604;28;20028;-28
2022/10/05 02:26:20;;;;;;;0.70;0.70;;;;;;;17.75;61.87;97128.97;10509368;28;20109;-29
2022/10/05 02:31:36;;;;;;;2.33;0.93;;;;;;;17.76;61.83;97121.38;10513264;28;20028;-30
2022/10/05 02:36:39;;;;;;;1.02;0.70;;;;;;;17.75;61.80;97114.63;10501119;28;20572;-29
2022/10/05 02:41:50;;;;;;;1.05;0.70;;;;;;;17.76;61.90;97121.38;10510163;28;20071;-29
2022/10/05 02:47:09;;;;;;;0.85;0.68;;;;;;;17.82;61.90;97110.47;10514260;28;20035;-29
2022/10/05 02:52:25;;;;;;;1.60;0.90;;;;;;;17.85;62.10;97118.09;10507814;28;20466;-29
2022/10/05 02:57:32;;;;;;;0.73;0.70;;;;;;;17.83;61.99;97119.75;10501664;28;20119;-29
2022/10/05 03:02:51;;;;;;;1.40;0.80;;;;;;;17.76;61.92;97105.34;10506174;28;20330;-29
2022/10/05 03:08:02;;;;;;;1.70;1.60;;;;;;;17.80;61.76;97115.50;10508992;28;20469;-29
2022/10/05 03:13:12;;;;;;;1.40;0.95;;;;;;;17.76;61.79;97116.31;10508161;28;20243;-28
2022/10/05 03:18:40;;;;;;;1.40;0.90;;;;;;;17.75;61.87;97109.56;10510933;28;20073;-29
2022/10/05 03:24:07;;;;;;;1.95;0.57;;;;;;;17.76;61.75;97115.47;10505995;28;20075;-28
2022/10/05 03:29:16;;;;;;;0.77;0.77;;;;;;;17.77;61.96;97122.22;10505604;28;20036;-29
2022/10/05 03:34:28;;;;;;;0.70;0.70;;;;;;;17.75;62.03;97123.91;10505291;28;20045;-29
2022/10/05 03:39:43;;;;;;;0.73;0.73;;;;;;;17.75;61.75;97129.81;10511509;28;20046;-30
2022/10/05 03:45:03;;;;;;;0.93;0.70;;;;;;;17.75;61.88;97128.97;10505614;28;20112;-28
2022/10/05 03:50:30;;;;;;;0.90;0.70;;;;;;;17.77;61.61;97130.69;10503404;28;20033;-28
2022/10/05 03:56:10;;;;;;;0.77;0.70;;;;;;;17.82;61.57;97125.66;10474318;28;20113;-28
2022/10/05 04:01:18;;;;;;;0.70;0.70;;;;;;;17.82;62.23;97130.72;10509077;28;20048;-28
2022/10/05 04:06:25;;;;;;;1.73;0.90;;;;;;;17.85;61.80;97118.09;10499932;28;20504;-28
2022/10/05 04:11:36;;;;;;;0.70;0.70;;;;;;;17.84;61.73;97118.94;10511093;28;20032;-29
2022/10/05 04:16:44;;;;;;;2.03;1.00;;;;;;;17.77;62.06;97107.03;10522887;28;20032;-29
2022/10/05 04:21:58;;;;;;;1.42;1.10;;;;;;;17.82;61.88;97107.94;10516136;28;20066;-29
2022/10/05 04:27:06;;;;;;;1.25;0.80;;;;;;;17.81;61.70;97096.09;10509194;28;20143;-29
2022/10/05 04:32:24;;;;;;;1.15;0.75;;;;;;;17.81;61.79;97091.03;10520050;28;20028;-28
2022/10/05 04:37:38;;;;;;;1.48;0.90;;;;;;;17.78;61.93;97093.53;10517420;28;20470;-29
2022/10/05 04:43:05;;;;;;;1.52;1.10;;;;;;;17.70;61.79;97095.16;10512417;28;20032;-29
2022/10/05 04:48:38;;;;;;;2.60;1.38;;;;;;;17.74;62.12;97096.91;10506338;28;20520;-29
2022/10/05 04:54:05;;;;;;;5.07;1.15;;;;;;;17.69;61.55;97108.66;10501721;28;20048;-29
2022/10/05 04:59:11;;;;;;;6.78;1.90;;;;;;;17.81;62.18;97106.22;10506006;28;20032;-28
2022/10/05 05:04:18;;;;;;;;;;;;;;;17.86;62.33;97097.84;10518157;28;20040;-29
2022/10/05 05:09:21;;;;;;;2.28;1.10;;;;;;;17.88;61.40;97100.38;10509412;28;19916;-28
2022/10/05 05:14:38;;;;;;;6.38;2.03;;;;;;;17.90;61.27;97097.03;10512903;28;20513;-28
2022/10/05 05:19:55;;;;;;;5.95;1.00;;;;;;;17.90;60.94;97103.78;10517264;28;20060;-30
2022/10/05 05:25:19;;;;;;;3.83;0.95;;;;;;;17.87;60.67;97109.69;10511470;28;20036;-28
2022/10/05 05:30:27;;;;;;;8.77;1.60;;;;;;;17.85;60.60;97113.88;10519808;28;20115;-29
2022/10/05 05:35:42;;;;;;;3.40;1.20;;;;;;;17.81;60.89;97104.53;10509633;28;20027;-28
2022/10/05 05:40:51;;;;;;;1.47;1.00;;;;;;;17.89;60.76;97117.25;10509828;28;20325;-28
2022/10/05 05:46:13;;;;;;;3.17;1.20;;;;;;;17.88;60.69;97123.16;10507841;28;20291;-29
2022/10/05 05:51:22;;;;;;;2.05;1.08;;;;;;;17.90;60.79;97131.66;10514719;28;20122;-28
2022/10/05 05:56:31;;;;;;;4.50;1.10;;;;;;;17.87;60.48;97124.00;10509152;28;20031;-29
2022/10/05 06:01:37;;;;;;;2.55;1.10;;;;;;;17.94;60.53;97143.50;10512313;28;20066;-28
2022/10/05 06:06:47;;;;;;;0.80;0.80;;;;;;;17.95;60.58;97150.25;10508431;28;20096;-28
2022/10/05 06:11:53;;;;;;;3.65;1.25;;;;;;;17.93;60.68;97147.69;10519250;28;20502;-29
2022/10/05 06:17:04;;;;;;;5.07;0.80;;;;;;;17.88;60.88;97146.81;10516401;28;20034;-29
2022/10/05 06:22:10;;;;;;;1.52;0.88;;;;;;;17.94;60.64;97164.63;10505184;28;20404;-29
2022/10/05 06:27:17;;;;;;;1.10;0.80;;;;;;;17.94;60.47;97166.28;10509444;28;20097;-30
2022/10/05 06:32:20;;;;;;;1.55;1.02;;;;;;;17.92;60.76;97163.75;10514659;28;20103;-29
2022/10/05 06:37:44;;;;;;;1.05;0.60;;;;;;;17.91;60.32;97167.09;10505245;28;20028;-29
2022/10/05 06:43:04;;;;;;;2.15;0.93;;;;;;;17.90;60.48;97169.66;10509803;28;20024;-28
2022/10/05 06:48:10;;;;;;;1.88;0.93;;;;;;;17.91;60.41;97168.81;10515155;28;20066;-29
2022/10/05 06:53:43;;;;;;;1.15;0.60;;;;;;;17.93;60.34;97174.72;10513812;28;20472;-29
2022/10/05 06:58:49;;;;;;;1.50;0.87;;;;;;;17.92;60.42;97163.75;10504169;28;20043;-29
2022/10/05 07:03:59;;;;;;;1.02;0.75;;;;;;;17.92;60.34;97178.09;10509599;28;20032;-29
2022/10/05 07:09:24;;;;;;;1.20;0.65;;;;;;;17.92;60.27;97173.03;10508832;28;20031;-28
2022/10/05 07:14:47;;;;;;;3.53;0.90;;;;;;;17.93;60.36;97174.72;10505514;28;20430;-28
2022/10/05 07:20:07;;;;;;;0.82;0.80;;;;;;;17.93;60.57;97179.81;10518045;28;20046;-29
2022/10/05 07:25:14;;;;;;;0.82;0.82;;;;;;;17.92;60.65;97168.81;10507363;28;20035;-28
2022/10/05 07:30:16;;;;;;;0.85;0.63;;;;;;;17.90;60.39;97174.72;10507853;28;20512;-29
2022/10/05 07:41:18;;;;;;;1.67;0.70;;;;;;;17.91;60.26;97186.53;10510632;28;20028;-28
2022/10/05 07:46:42;;;;;;;0.80;0.65;;;;;;;17.89;60.43;97186.50;10507854;28;20024;-29
2022/10/05 07:51:57;;;;;;;1.00;0.77;;;;;;;17.90;60.55;97187.38;10524588;28;20024;-28
2022/10/05 07:57:20;;;;;;;2.63;0.90;;;;;;;17.91;60.69;97186.53;10516672;28;20028;-31
2022/10/05 08:03:08;;;;;;;0.80;0.68;;;;;;;17.90;60.35;97189.91;10514048;28;20020;-28
2022/10/05 08:08:09;;;;;;;1.02;0.80;;;;;;;17.89;60.21;97189.06;10321597;28;20157;-29
2022/10/05 08:13:36;;;;;;;0.63;0.63;;;;;;;17.90;60.33;97193.28;10486172;28;20040;-29
2022/10/05 08:18:55;;;;;;;;;;;;;;;17.89;60.47;97183.97;10516033;28;20392;-28
2022/10/05 08:24:05;;;;;;;0.70;0.68;;;;;;;17.90;60.58;97189.91;10513027;28;19919;-30
2022/10/05 08:29:18;;;;;;;0.60;0.60;;;;;;;17.72;60.52;97155.13;10517560;28;20028;-29
2022/10/05 08:34:33;;;;;;;1.10;0.68;;;;;;;17.90;60.76;97189.91;10516394;28;20047;-29
2022/10/05 08:39:49;;;;;;;0.50;0.50;;;;;;;17.86;60.42;97185.63;10519568;28;20114;-29
2022/10/05 08:45:11;;;;;;;1.15;1.00;;;;;;;17.91;60.16;97199.22;10512034;28;20028;-29
2022/10/05 08:50:38;;;;;;;1.10;1.00;;;;;;;17.91;60.20;97207.63;10516969;28;20067;-29
2022/10/05 08:55:57;;;;;;;;;;;;;;;17.91;60.27;97206.81;10508145;28;20543;-29
2022/10/05 09:01:24;;;;;;;0.90;0.73;;;;;;;17.90;60.32;97205.13;10518042;28;20375;-29
2022/10/05 09:06:49;;;;;;;1.25;0.80;;;;;;;17.89;60.40;97199.19;10517342;28;20040;-28
2022/10/05 09:12:09;;;;;;;0.63;0.60;;;;;;;17.84;60.43;97184.78;10507729;28;20029;-29
2022/10/05 09:17:17;;;;;;;1.33;0.93;;;;;;;17.90;60.44;97194.97;10514373;28;20044;-28
2022/10/05 09:22:36;;;;;;;5.53;0.70;;;;;;;17.90;60.34;97195.81;10513676;28;20111;-29
2022/10/05 09:27:38;;;;;;;0.60;0.60;;;;;;;17.89;60.22;97195.78;10512901;28;20062;-29
2022/10/05 09:33:13;;;;;;;1.80;0.63;;;;;;;17.92;60.61;97190.78;10521351;28;20040;-29
2022/10/05 09:38:27;;;;;;;2.25;0.80;;;;;;;17.90;60.86;97188.22;10509209;28;20038;-29
2022/10/05 09:44:13;;;;;;;0.55;0.55;;;;;;;17.92;60.62;97188.25;10513831;28;20096;-29
2022/10/05 09:49:49;;;;;;;0.60;0.50;;;;;;;17.92;60.57;97190.78;10518295;28;20044;-29
2022/10/05 09:55:08;;;;;;;0.60;0.60;;;;;;;17.91;60.23;97184.00;10511339;28;20059;-29
2022/10/05 10:00:33;;;;;;;0.75;0.75;;;;;;;17.90;60.40;97185.69;10512876;28;20114;-29
2022/10/05 10:05:52;;;;;;;0.60;0.55;;;;;;;17.90;60.56;97178.06;10505914;28;20040;-29
2022/10/05 10:11:04;;;;;;;0.68;0.68;;;;;;;17.89;60.26;97173.84;10515345;28;20081;-29
2022/10/05 10:16:17;;;;;;;0.90;0.73;;;;;;;17.90;60.40;97174.72;10512219;28;20511;-29
2022/10/05 10:21:44;;;;;;;1.33;0.68;;;;;;;17.87;60.54;97167.06;10511236;28;20036;-29
2022/10/05 10:27:09;;;;;;;0.40;0.40;;;;;;;17.90;60.42;97177.25;10511713;28;20638;-29
2022/10/05 10:32:31;;;;;;;0.60;0.60;;;;;;;17.90;60.51;97169.66;10497667;28;20403;-29
2022/10/05 10:37:54;;;;;;;1.02;0.73;;;;;;;17.92;60.37;97167.97;10504185;28;20780;-29
2022/10/05 10:42:55;;;;;;;2.55;1.20;;;;;;;17.95;60.36;97173.06;10502648;28;20040;-28
2022/10/05 10:48:02;;;;;;;3.58;0.60;;;;;;;17.95;60.39;97168.00;10499262;28;20032;-29
2022/10/05 10:53:34;;;;;;;0.57;0.40;;;;;;;17.96;60.31;97180.69;10512573;28;20372;-29
2022/10/05 10:58:43;;;;;;;1.30;0.60;;;;;;;17.94;60.30;97171.34;10517475;28;20453;-29
2022/10/05 11:04:19;;;;;;;0.68;0.60;;;;;;;17.94;60.35;97184.03;10504331;28;20543;-29
2022/10/05 11:09:41;;;;;;;0.95;0.93;;;;;;;17.95;60.12;97175.59;10514240;28;20081;-29
2022/10/05 11:15:04;;;;;;;1.00;0.60;;;;;;;17.94;60.39;97177.28;10515598;28;20047;-29
2022/10/05 11:20:43;;;;;;;0.93;0.60;;;;;;;17.94;60.08;97177.28;10511031;28;20500;-28
2022/10/05 11:25:52;;;;;;;2.90;0.73;;;;;;;17.98;60.11;97178.16;10508298;28;20508;-29
2022/10/05 11:30:55;;;;;;;0.75;0.65;;;;;;;17.97;60.13;97171.38;10509583;28;20029;-28
2022/10/05 11:36:15;;;;;;;0.88;0.70;;;;;;;17.98;59.92;97183.25;10506424;28;20480;-29
2022/10/05 11:41:27;;;;;;;4.72;1.08;;;;;;;17.96;59.98;97173.06;10511221;28;20031;-29
2022/10/05 11:46:40;;;;;;;2.35;1.10;;;;;;;17.98;59.79;97173.94;10511128;28;20498;-29
2022/10/05 11:51:57;;;;;;;1.85;1.10;;;;;;;17.97;60.11;97163.78;10512279;28;20040;-29
2022/10/05 11:57:04;;;;;;;2.08;1.13;;;;;;;17.99;60.11;97149.47;10508892;28;20109;-29
2022/10/05 12:02:30;;;;;;;3.85;1.70;;;;;;;18.00;60.01;97141.03;10508311;28;20079;-30
2022/10/05 12:07:36;;;;;;;4.72;2.22;;;;;;;17.99;60.18;97159.59;10508586;28;20145;-28
2022/10/05 12:12:47;;;;;;;4.63;2.20;;;;;;;18.00;59.94;97128.34;10509364;28;20032;-29
2022/10/05 12:18:13;;;;;;;6.85;1.80;;;;;;;17.98;60.88;97137.63;10508117;28;20071;-29
2022/10/05 12:23:40;;;;;;;1.33;1.02;;;;;;;18.01;60.61;97140.19;10502055;28;20819;-29
2022/10/05 12:28:48;;;;;;;1.88;1.27;;;;;;;17.99;60.75;97136.78;10507583;28;20518;-28
2022/10/05 12:34:16;;;;;;;4.10;1.20;;;;;;;18.01;61.04;97132.59;10503731;28;20486;-29
2022/10/05 12:39:26;;;;;;;4.32;1.25;;;;;;;17.99;60.70;97121.59;10519431;28;20067;-29
2022/10/05 12:44:41;;;;;;;5.78;1.48;;;;;;;18.01;61.03;97122.44;10512972;28;20156;-29
2022/10/05 12:49:55;;;;;;;1.80;1.45;;;;;;;17.98;60.83;97117.38;10522449;28;20119;-29
2022/10/05 12:55:11;;;;;;;5.18;1.70;;;;;;;17.97;61.44;97108.03;10508116;28;20031;-29
2022/10/05 13:00:17;;;;;;;5.27;1.80;;;;;;;17.97;61.56;97111.44;10516119;28;20025;-28
2022/10/05 13:05:26;;;;;;;3.13;1.10;;;;;;;18.00;61.04;97108.09;10514909;28;20035;-28
2022/10/05 13:10:47;;;;;;;3.83;1.38;;;;;;;18.01;60.93;97108.06;10513869;28;20031;-28
2022/10/05 13:16:16;;;;;;;3.70;1.42;;;;;;;17.99;60.83;97108.94;10517435;28;20071;-28
2022/10/05 13:21:32;;;;;;;2.70;0.90;;;;;;;17.95;61.05;97108.06;10515091;28;20051;-29
2022/10/05 13:26:38;;;;;;;6.40;1.10;;;;;;;17.99;61.02;97109.75;10508418;28;20040;-28
2022/10/05 13:31:49;;;;;;;5.93;1.47;;;;;;;17.98;61.44;97102.16;10519491;28;20535;-29
2022/10/05 13:37:02;;;;;;;2.58;1.10;;;;;;;18.00;61.27;97103.84;10515137;28;20024;-28
2022/10/05 13:42:14;;;;;;;2.55;1.73;;;;;;;17.95;60.86;97086.94;10514035;28;20433;-29
2022/10/05 13:47:30;;;;;;;4.45;1.05;;;;;;;18.01;61.10;97102.19;10519148;28;20039;-28
2022/10/05 13:52:56;;;;;;;3.87;1.30;;;;;;;18.01;61.10;97100.47;10514499;28;20452;-28
2022/10/05 13:58:06;;;;;;;3.80;2.33;;;;;;;18.00;61.26;97100.50;10464970;28;20085;-28
2022/10/05 14:03:26;;;;;;;8.52;2.30;;;;;;;18.02;62.38;97108.94;10512194;28;20040;-28
2022/10/05 14:08:32;;;;;;;5.30;1.38;;;;;;;18.02;62.38;97101.34;10506863;28;20036;-28
2022/10/05 14:13:45;;;;;;;2.95;1.38;;;;;;;17.99;62.04;97098.78;10519918;28;20039;-29
2022/10/05 14:18:51;;;;;;;2.55;0.82;;;;;;;18.00;61.30;97100.50;10513901;28;20388;-30
2022/10/05 14:23:52;;;;;;;5.67;2.00;;;;;;;18.03;60.97;97090.38;10512543;28;20092;-28
2022/10/05 14:29:02;;;;;;;5.68;1.00;;;;;;;18.02;60.96;97086.13;10511226;28;20040;-28
2022/10/05 14:34:26;;;;;;;1.75;0.93;;;;;;;18.02;61.11;97083.59;10509694;28;20428;-29
2022/10/05 14:39:31;;;;;;;1.98;0.93;;;;;;;18.03;60.83;97095.44;10514260;28;20039;-28
2022/10/05 14:44:31;;;;;;;3.58;0.88;;;;;;;18.01;60.76;97090.34;10510681;28;20085;-28
2022/10/05 14:49:35;;;;;;;2.83;0.90;;;;;;;18.02;61.04;97083.59;10516034;28;20082;-29
2022/10/05 14:54:52;;;;;;;2.05;0.75;;;;;;;18.01;61.41;97089.50;10511230;28;20074;-29
2022/10/05 14:59:59;;;;;;;2.53;0.93;;;;;;;18.02;61.00;97086.13;10503664;28;20035;-28
2022/10/05 15:05:04;;;;;;;3.83;1.95;;;;;;;18.01;62.26;97074.31;10510924;28;20044;-28
2022/10/05 15:10:28;;;;;;;6.60;1.00;;;;;;;18.03;63.03;97077.69;10514216;28;20028;-28
2022/10/05 15:15:46;;;;;;;2.92;1.00;;;;;;;18.04;63.11;97084.47;10513381;28;20032;-29
2022/10/05 15:21:04;;;;;;;2.53;0.70;;;;;;;18.02;62.10;97081.06;10507781;28;20028;-28
2022/10/05 15:26:19;;;;;;;4.38;0.90;;;;;;;18.02;61.34;97079.41;10508652;28;20028;-29
2022/10/05 15:31:52;;;;;;;3.15;0.90;;;;;;;18.03;61.24;97086.16;10513804;28;20089;-29
2022/10/05 15:37:06;;;;;;;1.95;0.70;;;;;;;18.03;61.20;97085.31;10505578;28;20021;-29
2022/10/05 15:42:13;;;;;;;2.40;0.80;;;;;;;18.01;60.99;97092.03;10500905;28;20047;-29
2022/10/05 15:47:24;;;;;;;1.98;0.82;;;;;;;17.99;61.27;97091.19;10510783;28;20032;-28
2022/10/05 15:52:28;;;;;;;1.42;1.00;;;;;;;17.99;61.06;97093.72;10504809;28;20034;-27
2022/10/05 15:58:09;;;;;;;1.63;0.70;;;;;;;17.99;61.20;97098.78;10508192;28;20040;-30
2022/10/05 16:03:44;;;;;;;2.97;1.00;;;;;;;18.01;61.81;97112.31;10509129;28;20432;-30
2022/10/05 16:08:55;;;;;;;1.48;0.52;;;;;;;18.01;61.26;97105.53;10503215;28;20044;-28
2022/10/05 16:14:14;;;;;;;2.22;0.93;;;;;;;18.02;63.49;97114.88;10519353;28;20408;-28
2022/10/05 16:19:19;;;;;;;2.67;1.70;;;;;;;18.06;63.74;97123.31;10511888;28;20051;-29
2022/10/05 16:24:38;;;;;;;2.53;1.02;;;;;;;18.07;63.77;97125.88;10514683;28;20133;-29
2022/10/05 16:29:53;;;;;;;1.08;0.60;;;;;;;18.04;61.47;97130.06;10516048;28;20047;-28
2022/10/05 16:35:13;;;;;;;1.35;0.57;;;;;;;17.99;61.21;97140.16;10516283;28;20499;-28
2022/10/05 16:40:27;;;;;;;3.30;1.02;;;;;;;17.98;61.26;97152.84;10519446;28;20025;-30
2022/10/05 16:45:37;;;;;;;3.25;0.70;;;;;;;17.96;61.55;97151.94;10514296;28;20108;-30
2022/10/05 16:51:01;;;;;;;2.30;0.90;;;;;;;17.99;61.18;97164.66;10524045;28;20165;-28
2022/10/05 16:56:13;;;;;;;1.10;0.47;;;;;;;17.98;61.29;97168.03;10509013;28;20036;-28
2022/10/05 17:01:35;;;;;;;5.63;0.98;;;;;;;17.97;61.88;97182.38;10516469;28;20040;-29
2022/10/05 17:07:05;;;;;;;1.35;0.77;;;;;;;17.97;61.27;97181.50;10520808;28;20106;-30
2022/10/05 17:12:31;;;;;;;3.83;0.80;;;;;;;17.88;61.35;97173.81;10513288;28;20111;-29
2022/10/05 17:17:36;;;;;;;2.92;0.70;;;;;;;17.93;61.46;97189.94;10511904;28;20059;-28
2022/10/05 17:22:49;;;;;;;3.45;1.50;;;;;;;18.02;64.56;97190.00;10515642;28;20067;-26
2022/10/05 17:27:51;;;;;;;5.72;1.27;;;;;;;18.01;64.61;97193.38;10502768;28;20036;-28
2022/10/05 17:33:15;;;;;;;2.97;0.88;;;;;;;18.03;64.29;97201.84;10522957;28;20032;-27
2022/10/05 17:38:22;;;;;;;2.55;0.70;;;;;;;17.99;61.76;97208.56;10517161;28;20036;-29
2022/10/05 17:43:25;;;;;;;1.95;0.90;;;;;;;18.03;61.57;97211.97;10507787;28;20057;-27
2022/10/05 17:48:48;;;;;;;1.67;0.55;;;;;;;18.00;61.27;97207.72;10520393;28;20500;-28
2022/10/05 17:59:07;;;;;;;3.72;0.88;;;;;;;18.01;61.35;97217.03;10502697;28;20108;-26
2022/10/05 18:04:11;;;;;;;4.55;0.70;;;;;;;18.00;61.27;97222.09;10505976;28;20058;-28
2022/10/05 18:09:20;;;;;;;1.42;0.77;;;;;;;17.98;61.20;97223.78;10507990;28;20506;-27
2022/10/05 18:14:24;;;;;;;3.53;0.88;;;;;;;17.96;61.52;97223.75;10512552;28;20036;-27
2022/10/05 18:19:28;;;;;;;1.50;1.02;;;;;;;17.95;61.20;97233.84;10512006;28;20032;-27
2022/10/05 18:24:43;;;;;;;0.70;0.70;;;;;;;17.98;61.21;97239.81;10516687;28;20550;-27
2022/10/05 18:30:01;;;;;;;5.43;1.73;;;;;;;18.02;64.44;97235.63;10512171;28;20028;-28
2022/10/05 18:35:14;;;;;;;2.95;1.48;;;;;;;18.01;64.12;97244.88;10506278;28;20519;-27
2022/10/05 18:40:29;;;;;;;3.33;1.15;;;;;;;18.02;62.66;97261.81;10510305;28;20060;-27
2022/10/05 18:46:20;;;;;;;2.42;1.02;;;;;;;18.04;61.65;97269.41;10502336;28;20123;-28
2022/10/05 18:51:35;;;;;;;5.88;0.80;;;;;;;18.04;61.56;97277.00;10429271;28;20055;-29
2022/10/05 18:56:42;;;;;;;4.85;0.90;;;;;;;18.02;61.57;97281.22;10504341;28;20032;-29
2022/10/05 19:02:14;;;;;;;2.15;1.05;;;;;;;18.01;61.81;97295.56;10508673;28;20464;-28
2022/10/05 19:07:25;;;;;;;1.13;1.02;;;;;;;18.06;61.63;97305.75;10494879;28;21114;-29
2022/10/05 19:12:49;;;;;;;2.85;1.10;;;;;;;18.05;61.80;97316.72;10492813;28;20029;-29
2022/10/05 19:18:17;;;;;;;4.82;0.80;;;;;;;18.07;61.44;97320.16;10513297;28;20054;-28
2022/10/05 19:23:39;;;;;;;2.97;1.00;;;;;;;18.08;61.51;97326.91;10522108;28;20036;-29
2022/10/05 19:28:50;;;;;;;2.28;0.90;;;;;;;18.07;61.69;97331.09;10528728;28;20150;-29
2022/10/05 19:34:15;;;;;;;2.70;1.00;;;;;;;18.05;62.31;97335.31;10508585;28;20477;-28
2022/10/05 19:39:29;;;;;;;3.05;1.08;;;;;;;18.05;64.02;97342.06;10528933;28;20115;-29
2022/10/05 19:44:45;;;;;;;2.67;1.25;;;;;;;18.08;63.35;97350.53;10510267;28;20135;-29
2022/10/05 19:50:03;;;;;;;5.00;1.00;;;;;;;18.06;62.77;97353.88;10520759;28;20178;-28
2022/10/05 19:55:20;;;;;;;2.95;0.90;;;;;;;18.04;61.83;97358.09;10515722;28;20036;-29
2022/10/05 20:00:23;;;;;;;;;;;;;;;18.05;61.70;97362.31;10512050;28;20539;-28
2022/10/05 20:05:23;;;;;;;1.23;0.82;;;;;;;18.00;61.67;97366.50;10517406;28;20053;-28
2022/10/05 20:10:28;;;;;;;1.47;1.27;;;;;;;18.03;61.86;97379.19;10517024;28;20398;-28
2022/10/05 20:20:50;;;;;;;1.25;0.85;;;;;;;17.99;61.74;97382.53;10521210;28;20621;-28
2022/10/05 20:31:11;;;;;;;3.35;0.77;;;;;;;18.02;61.36;97402.84;10509476;28;20294;-29
2022/10/05 20:36:11;;;;;;;2.15;0.70;;;;;;;18.02;61.42;97423.09;10508167;28;20039;-28
2022/10/05 20:41:12;;;;;;;1.90;0.80;;;;;;;18.01;61.69;97426.47;10510793;28;20020;-29
2022/10/05 20:46:12;;;;;;;3.22;1.20;;;;;;;18.04;63.77;97436.66;10516197;28;20028;-28
2022/10/05 20:51:16;;;;;;;2.80;1.00;;;;;;;18.04;63.52;97436.66;10516036;28;20112;-29
2022/10/05 20:56:18;;;;;;;1.23;0.80;;;;;;;18.03;63.29;97455.22;10511475;28;20116;-28
2022/10/05 21:01:19;;;;;;;1.98;0.93;;;;;;;18.00;61.98;97450.13;10511413;28;20031;-28
2022/10/05 21:06:20;;;;;;;1.90;1.08;;;;;;;18.01;61.86;97456.88;10516794;28;20040;-30
2022/10/05 21:11:20;;;;;;;1.05;0.80;;;;;;;17.99;61.91;97463.63;10514867;28;20166;-30
2022/10/05 21:16:21;;;;;;;2.08;0.80;;;;;;;18.01;61.79;97469.56;10513310;28;20100;-28
2022/10/05 21:21:26;;;;;;;2.08;0.85;;;;;;;18.01;61.80;97472.09;10511096;28;20024;-28
2022/10/05 21:26:28;;;;;;;2.08;0.80;;;;;;;18.01;61.69;97472.91;10513823;28;20036;-28
2022/10/05 21:31:29;;;;;;;0.85;0.55;;;;;;;17.95;61.81;97461.84;10518918;28;20034;-29
2022/10/05 21:36:29;;;;;;;1.40;0.75;;;;;;;17.89;61.75;97456.69;10511347;28;20020;-28
2022/10/05 21:41:30;;;;;;;1.00;0.77;;;;;;;18.00;61.58;97475.47;10514571;28;20035;-28
2022/10/05 21:46:31;;;;;;;0.90;0.70;;;;;;;17.96;61.68;97459.34;10515522;28;20042;-28
2022/10/05 21:51:32;;;;;;;1.58;0.70;;;;;;;18.01;62.99;97482.22;10516781;28;20060;-28
2022/10/05 21:56:36;;;;;;;2.08;0.90;;;;;;;18.02;63.92;97483.91;10510865;28;20028;-28
2022/10/05 22:01:37;;;;;;;1.27;0.80;;;;;;;18.02;63.44;97478.84;10514693;28;20107;-28
2022/10/05 22:06:37;;;;;;;1.17;0.65;;;;;;;18.02;62.56;97489.00;10504377;28;20389;-29
2022/10/05 22:11:38;;;;;;;1.83;0.90;;;;;;;18.00;61.81;97485.59;10508231;28;20032;-28
2022/10/05 22:16:42;;;;;;;1.15;0.63;;;;;;;17.99;62.40;97499.09;10511772;28;20291;-29
2022/10/05 22:21:42;;;;;;;2.42;0.93;;;;;;;17.99;61.91;97491.50;10511950;28;20028;-28
2022/10/05 22:26:45;;;;;;;0.57;0.50;;;;;;;17.97;61.63;97495.66;10511480;28;20047;-29
2022/10/05 22:31:47;;;;;;;2.08;0.85;;;;;;;17.97;61.87;97493.13;10517884;28;20692;-30
2022/10/05 22:36:48;;;;;;;0.95;0.70;;;;;;;17.94;61.81;97493.09;10502338;28;20064;-28
2022/10/05 22:41:49;;;;;;;1.35;0.47;;;;;;;17.99;61.62;97496.56;10511643;28;20591;-29
2022/10/05 22:46:49;;;;;;;1.17;0.60;;;;;;;17.89;61.70;97476.97;10516315;28;20036;-28
2022/10/05 22:51:50;;;;;;;1.85;0.80;;;;;;;17.99;61.76;97501.63;10511015;28;20043;-29
2022/10/05 22:56:50;;;;;;;0.98;0.50;;;;;;;17.97;61.58;97498.19;10504657;28;20028;-29
2022/10/05 23:01:50;;;;;;;2.10;0.80;;;;;;;18.01;63.21;97502.50;10509384;28;20028;-28
2022/10/05 23:06:51;;;;;;;1.07;0.60;;;;;;;17.97;63.48;97495.66;10512761;28;20388;-30
2022/10/05 23:11:53;;;;;;;1.90;0.67;;;;;;;18.02;63.14;97509.25;10506369;28;20302;-28
2022/10/05 23:16:53;;;;;;;1.50;0.70;;;;;;;17.95;62.00;97512.53;10519871;28;20285;-28
2022/10/05 23:21:53;;;;;;;1.07;0.80;;;;;;;17.95;61.71;97517.59;10501918;28;20033;-29
2022/10/05 23:26:54;;;;;;;0.60;0.60;;;;;;;17.96;61.95;97520.16;10514598;28;20119;-28
2022/10/05 23:31:54;;;;;;;0.70;0.70;;;;;;;17.96;62.40;97524.38;10511642;28;20059;-28
2022/10/05 23:36:54;;;;;;;0.40;0.40;;;;;;;17.97;61.86;97526.06;10502437;28;20024;-28
2022/10/05 23:41:55;;;;;;;1.10;0.60;;;;;;;17.97;61.69;97528.59;10509263;28;20029;-28
2022/10/05 23:46:55;;;;;;;0.90;0.75;;;;;;;17.99;61.53;97535.41;10513473;28;20036;-28
2022/10/05 23:51:56;;;;;;;3.20;0.70;;;;;;;17.94;62.04;97541.22;10512266;28;20108;-28
2022/10/05 23:56:56;;;;;;;0.47;0.47;;;;;;;17.96;61.64;97537.91;10503019;28;20419;-30
